Time;durP1;ratioP1;P1;durP2;ratioP2;P2;SDS_P1;SDS_P2;PMS_P1;PMS_P2;Temp;Humidity;BMP_temperature;BMP_pressure;BME280_temperature;BME280_humidity;BME280_pressure;Samples;Min_cycle;Max_cycle;Signal;HPM_P1;HPM_P2
2023/09/13 00:01:27;;;;;;;0.90;0.90;;;;;;;20.95;57.34;99655.12;5348214;26;33149;-79
2023/09/13 00:03:57;;;;;;;0.88;0.62;;;;;;;20.89;57.32;99661.06;5348914;26;32916;-79
2023/09/13 00:06:24;;;;;;;1.10;1.00;;;;;;;20.94;57.16;99653.44;5349509;26;33072;-79
2023/09/13 00:08:52;;;;;;;0.95;0.95;;;;;;;20.90;57.25;99652.03;5368094;26;33089;-79
2023/09/13 00:11:20;;;;;;;0.22;0.22;;;;;;;20.81;57.48;99644.78;5367905;26;33649;-78
2023/09/13 00:13:48;;;;;;;8.32;1.60;;;;;;;20.71;57.83;99653.66;5349406;26;33955;-78
2023/09/13 00:16:15;;;;;;;1.52;1.42;;;;;;;20.58;58.14;99658.37;5349257;26;33853;-78
2023/09/13 00:18:43;;;;;;;1.92;1.80;;;;;;;20.60;58.05;99653.72;5349601;26;33316;-78
2023/09/13 00:21:11;;;;;;;2.20;0.90;;;;;;;20.52;58.28;99648.19;5349258;26;32866;-78
2023/09/13 00:23:39;;;;;;;1.92;1.65;;;;;;;20.63;57.91;99640.03;5330838;26;33397;-78
2023/09/13 00:26:07;;;;;;;1.52;0.62;;;;;;;20.69;57.66;99649.38;5348404;26;33539;-78
2023/09/13 00:28:34;;;;;;;0.90;0.82;;;;;;;20.73;57.49;99640.09;5367892;26;33553;-78
2023/09/13 00:31:02;;;;;;;0.95;0.95;;;;;;;20.56;57.83;99635.37;5367822;26;33818;-79
2023/09/13 00:33:32;;;;;;;0.32;0.32;;;;;;;20.55;57.86;99637.19;5368272;26;34024;-79
2023/09/13 00:35:59;;;;;;;1.12;1.12;;;;;;;20.65;57.56;99638.09;5348438;26;33809;-79
2023/09/13 00:38:27;;;;;;;1.27;1.17;;;;;;;20.59;57.60;99627.87;5364897;26;33192;-79
2023/09/13 00:40:55;;;;;;;11.20;1.45;;;;;;;20.54;57.77;99630.13;5347972;26;32499;-79
2023/09/13 00:43:24;;;;;;;0.45;0.30;;;;;;;20.38;58.16;99641.31;5330628;26;32717;-79
2023/09/13 00:45:52;;;;;;;0.60;0.60;;;;;;;20.51;57.62;99641.13;5330996;26;33509;-79
2023/09/13 00:48:23;;;;;;;1.60;1.27;;;;;;;20.46;57.87;99638.81;5349558;26;33262;-79
2023/09/13 00:50:51;;;;;;;1.08;0.98;;;;;;;20.36;58.12;99643.25;5349360;26;34005;-79
2023/09/13 00:53:22;;;;;;;6.10;1.70;;;;;;;20.36;58.08;99645.94;5367641;26;34169;-80
2023/09/13 00:55:51;;;;;;;0.10;0.10;;;;;;;20.29;58.47;99641.28;5330496;26;33900;-79
2023/09/13 00:58:19;;;;;;;1.17;0.52;;;;;;;20.38;57.95;99648.53;5349201;26;32350;-79
2023/09/13 01:00:48;;;;;;;2.83;1.15;;;;;;;20.18;58.68;99645.72;5330887;26;32859;-79
2023/09/13 01:03:16;;;;;;;2.42;1.50;;;;;;;20.27;58.44;99644.09;5349470;26;34069;-79
2023/09/13 01:05:45;;;;;;;1.87;1.30;;;;;;;20.27;58.22;99643.22;5348767;26;34771;-81
2023/09/13 01:08:13;;;;;;;1.75;1.50;;;;;;;20.31;58.29;99640.13;5349945;26;33215;-80
2023/09/13 01:10:41;;;;;;;2.12;1.10;;;;;;;20.34;58.19;99647.09;5349273;26;32856;-81
2023/09/13 01:13:09;;;;;;;0.43;0.35;;;;;;;20.43;58.03;99649.81;5368007;26;33868;-81
2023/09/13 01:15:44;;;;;;;4.15;2.05;;;;;;;20.27;58.42;99653.94;5329805;26;33731;-80
2023/09/13 01:18:28;;;;;;;0.70;0.65;;;;;;;20.38;57.92;99661.94;5349294;26;33062;-81
2023/09/13 01:21:05;;;;;;;1.65;0.88;;;;;;;20.33;58.19;99662.31;5349730;26;34305;-81
2023/09/13 01:24:05;;;;;;;4.22;2.03;;;;;;;20.43;57.36;99660.53;5368015;26;34575;-81
2023/09/13 01:26:55;;;;;;;0.93;0.93;;;;;;;20.12;58.35;99650.75;5343504;26;33234;-80
2023/09/13 01:29:24;;;;;;;2.08;1.33;;;;;;;20.23;58.04;99649.84;5348832;26;32246;-79
2023/09/13 01:31:53;;;;;;;1.90;1.75;;;;;;;20.20;58.26;99656.31;5348585;26;33689;-79
2023/09/13 01:34:21;;;;;;;4.28;0.98;;;;;;;20.09;58.67;99665.28;5346256;26;32985;-79
2023/09/13 01:36:48;;;;;;;1.10;0.95;;;;;;;20.34;57.73;99658.66;5363801;26;35115;-79
2023/09/13 01:39:16;;;;;;;0.37;0.37;;;;;;;20.14;58.28;99660.38;5348231;26;33371;-79
2023/09/13 01:41:48;;;;;;;0.73;0.73;;;;;;;20.27;57.70;99661.97;5367793;26;33997;-79
2023/09/13 01:44:16;;;;;;;0.75;0.73;;;;;;;20.02;58.83;99657.87;5349134;26;34048;-79
2023/09/13 01:46:45;;;;;;;2.33;1.70;;;;;;;19.98;59.07;99664.47;5348808;26;33504;-79
2023/09/13 01:49:13;;;;;;;2.42;1.95;;;;;;;20.03;58.99;99657.75;5349373;26;33383;-79
2023/09/13 01:51:41;;;;;;;4.65;1.40;;;;;;;20.18;58.20;99659.13;5366404;26;34613;-79
2023/09/13 01:54:10;;;;;;;1.23;0.65;;;;;;;20.16;58.29;99658.41;5330566;26;33889;-79
2023/09/13 01:56:37;;;;;;;2.28;1.10;;;;;;;19.99;59.09;99661.69;5348235;26;34078;-80
2023/09/13 01:59:05;;;;;;;3.28;1.50;;;;;;;20.03;58.85;99663.09;5330306;26;32681;-79
2023/09/13 02:01:33;;;;;;;2.17;1.02;;;;;;;19.86;59.48;99667.22;5367446;26;33915;-80
2023/09/13 02:04:04;;;;;;;1.30;1.20;;;;;;;19.92;59.51;99665.84;5330857;26;33473;-79
2023/09/13 02:06:31;;;;;;;5.25;0.60;;;;;;;19.89;59.60;99666.97;5367433;26;34028;-80
2023/09/13 02:08:59;;;;;;;10.52;0.98;;;;;;;19.79;59.93;99666.03;5348743;26;33405;-79
2023/09/13 02:11:27;;;;;;;1.08;0.95;;;;;;;19.82;59.66;99665.78;5367364;26;33820;-79
2023/09/13 02:13:55;;;;;;;1.62;1.25;;;;;;;19.83;59.55;99661.28;5366492;26;31903;-79
2023/09/13 02:16:22;;;;;;;0.60;0.57;;;;;;;19.83;59.57;99650.56;5329976;26;32866;-80
2023/09/13 02:18:51;;;;;;;0.73;0.73;;;;;;;19.90;59.25;99659.78;5330624;26;34145;-80
2023/09/13 02:21:19;;;;;;;0.70;0.70;;;;;;;19.67;59.96;99657.22;5387224;26;33699;-80
2023/09/13 02:23:47;;;;;;;1.27;0.90;;;;;;;19.78;59.75;99658.13;5330295;26;33544;-79
2023/09/13 02:26:22;;;;;;;0.93;0.93;;;;;;;19.75;59.85;99655.69;5388493;26;34062;-80
2023/09/13 02:28:51;;;;;;;1.40;1.30;;;;;;;19.82;59.63;99648.84;5368719;26;33445;-81
2023/09/13 02:31:23;;;;;;;1.25;1.15;;;;;;;19.87;59.32;99655.53;5350091;26;33797;-80
2023/09/13 02:33:51;;;;;;;2.80;2.08;;;;;;;19.74;59.69;99654.00;5349227;26;33482;-81
2023/09/13 02:36:20;;;;;;;0.88;0.88;;;;;;;19.79;59.44;99649.94;5330961;26;32548;-80
2023/09/13 02:38:48;;;;;;;1.60;1.50;;;;;;;19.81;59.29;99653.38;5331007;26;33596;-80
2023/09/13 02:41:16;;;;;;;0.82;0.73;;;;;;;19.56;59.87;99659.91;5349496;26;32916;-80
2023/09/13 02:43:43;;;;;;;4.62;2.03;;;;;;;19.63;59.86;99655.75;5345768;26;33879;-81
2023/09/13 02:46:14;;;;;;;0.95;0.90;;;;;;;19.58;60.07;99665.97;5328639;26;34128;-80
2023/09/13 02:48:42;;;;;;;5.93;1.27;;;;;;;19.67;59.61;99659.03;5345762;26;32829;-80
2023/09/13 02:51:17;;;;;;;1.20;1.05;;;;;;;19.80;59.25;99661.56;5346080;26;33520;-80
2023/09/13 02:53:44;;;;;;;1.15;1.10;;;;;;;19.69;59.47;99657.91;5309450;26;33426;-80
2023/09/13 02:56:12;;;;;;;2.50;1.33;;;;;;;19.65;59.52;99659.19;5345966;26;34267;-80
2023/09/13 02:58:41;;;;;;;0.62;0.57;;;;;;;19.59;59.85;99669.50;5328038;26;32710;-80
2023/09/13 03:01:10;;;;;;;0.25;0.25;;;;;;;19.71;59.55;99665.00;5309146;26;33475;-80
2023/09/13 03:03:39;;;;;;;1.95;1.40;;;;;;;19.50;60.06;99665.75;5291855;26;33182;-80
2023/09/13 03:06:15;;;;;;;1.00;0.57;;;;;;;19.47;60.12;99659.81;5309219;26;33894;-80
2023/09/13 03:08:43;;;;;;;0.60;0.57;;;;;;;19.49;60.25;99655.19;5327575;26;33161;-80
2023/09/13 03:11:16;;;;;;;5.55;1.65;;;;;;;19.54;59.84;99656.50;5363231;26;33606;-80
2023/09/13 03:13:45;;;;;;;1.30;1.20;;;;;;;19.53;59.67;99657.47;5363908;26;32820;-80
2023/09/13 03:16:21;;;;;;;0.80;0.80;;;;;;;19.47;59.91;99652.63;5345623;26;32602;-80
2023/09/13 03:18:50;;;;;;;2.40;1.87;;;;;;;19.40;60.25;99654.94;5345767;26;32316;-79
2023/09/13 03:21:18;;;;;;;1.08;0.90;;;;;;;19.31;60.45;99653.03;5345491;26;33969;-79
2023/09/13 03:23:51;;;;;;;2.53;1.85;;;;;;;19.25;60.36;99650.87;5327563;26;32786;-79
2023/09/13 03:26:21;;;;;;;1.27;1.23;;;;;;;19.36;59.96;99652.66;5328169;26;34569;-79
2023/09/13 03:28:54;;;;;;;0.70;0.70;;;;;;;19.34;60.00;99650.13;5364285;26;32999;-78
2023/09/13 03:31:27;;;;;;;0.40;0.40;;;;;;;19.39;59.97;99647.91;5345281;26;32973;-79
2023/09/13 03:33:56;;;;;;;2.45;1.37;;;;;;;19.29;60.26;99654.16;5363789;26;33792;-79
2023/09/13 03:36:28;;;;;;;0.62;0.62;;;;;;;19.16;60.77;99651.63;5364771;26;34806;-79
2023/09/13 03:38:56;;;;;;;1.65;1.50;;;;;;;19.14;60.74;99654.44;5309360;26;33185;-79
2023/09/13 03:41:25;;;;;;;2.10;1.10;;;;;;;19.23;60.63;99646.59;5366302;26;33568;-80
2023/09/13 03:43:53;;;;;;;6.70;1.75;;;;;;;19.18;60.54;99650.53;5368152;26;34376;-79
2023/09/13 03:46:21;;;;;;;0.75;0.73;;;;;;;19.22;60.60;99644.91;5349264;26;33068;-79
2023/09/13 03:48:50;;;;;;;1.25;0.93;;;;;;;19.22;60.52;99642.22;5368667;26;32995;-79
2023/09/13 03:51:17;;;;;;;0.35;0.35;;;;;;;19.19;60.40;99646.88;5330709;26;32872;-79
2023/09/13 03:53:46;;;;;;;0.75;0.75;;;;;;;19.15;60.62;99644.56;5330780;26;33190;-80
2023/09/13 03:56:14;;;;;;;1.17;0.85;;;;;;;18.99;60.98;99653.00;5349089;26;33986;-80
2023/09/13 03:58:43;;;;;;;0.68;0.68;;;;;;;19.08;60.77;99651.37;5349121;26;32541;-79
2023/09/13 04:01:11;;;;;;;0.88;0.85;;;;;;;19.18;60.41;99653.22;5349824;26;33154;-80
2023/09/13 04:03:39;;;;;;;0.37;0.37;;;;;;;19.09;60.54;99650.44;5349545;26;34068;-80
2023/09/13 04:06:07;;;;;;;1.87;0.70;;;;;;;19.04;60.56;99648.13;5349482;26;33810;-80
2023/09/13 04:08:35;;;;;;;1.92;0.80;;;;;;;19.07;60.57;99658.56;5349502;26;33348;-80
2023/09/13 04:11:03;;;;;;;0.32;0.32;;;;;;;19.12;60.32;99655.50;5349340;26;32703;-80
2023/09/13 04:13:30;;;;;;;1.42;1.33;;;;;;;19.15;60.28;99660.63;5349378;26;33080;-80
2023/09/13 04:16:06;;;;;;;3.05;1.55;;;;;;;19.00;60.62;99657.37;5349423;26;33654;-81
2023/09/13 04:18:34;;;;;;;2.00;0.95;;;;;;;19.17;60.32;99664.88;5349303;26;33416;-80
2023/09/13 04:21:03;;;;;;;0.85;0.85;;;;;;;18.99;60.94;99661.03;5349002;26;33885;-80
2023/09/13 04:23:31;;;;;;;1.40;1.17;;;;;;;18.99;60.91;99666.37;5349520;26;34821;-79
2023/09/13 04:25:59;;;;;;;5.47;1.02;;;;;;;18.95;61.31;99664.94;5349102;26;33579;-79
2023/09/13 04:28:27;;;;;;;1.55;1.23;;;;;;;19.00;61.49;99667.22;5312597;26;33631;-79
2023/09/13 04:30:58;;;;;;;1.48;0.82;;;;;;;18.91;61.56;99669.66;5368470;26;34252;-79
2023/09/13 04:33:46;;;;;;;0.45;0.40;;;;;;;18.91;61.50;99663.47;5349792;26;34708;-79
2023/09/13 04:36:14;;;;;;;1.05;0.82;;;;;;;18.77;61.66;99669.06;5349042;26;32684;-79
2023/09/13 04:38:42;;;;;;;0.82;0.82;;;;;;;18.87;61.43;99667.34;5364877;26;32938;-80
2023/09/13 04:41:13;;;;;;;4.20;0.98;;;;;;;18.96;61.36;99671.13;5365313;26;34791;-80
2023/09/13 04:43:42;;;;;;;1.02;0.68;;;;;;;18.92;61.47;99670.50;5328023;26;33452;-79
2023/09/13 04:46:11;;;;;;;0.95;0.45;;;;;;;18.96;61.31;99680.00;5347375;26;33515;-79
2023/09/13 04:48:39;;;;;;;1.12;0.82;;;;;;;18.96;61.60;99679.16;5346536;26;34030;-80
2023/09/13 04:51:10;;;;;;;0.13;0.13;;;;;;;19.01;61.27;99679.63;5365698;26;34895;-79
2023/09/13 04:53:39;;;;;;;1.83;1.73;;;;;;;19.09;61.12;99683.41;5345739;26;34442;-80
2023/09/13 04:56:06;;;;;;;1.87;1.23;;;;;;;19.21;60.94;99686.88;5346405;26;33010;-79
2023/09/13 04:58:34;;;;;;;0.70;0.68;;;;;;;19.19;61.11;99683.50;5328155;26;33712;-80
2023/09/13 05:01:05;;;;;;;0.70;0.70;;;;;;;19.11;61.08;99680.59;5366051;26;34223;-80
2023/09/13 05:03:33;;;;;;;0.77;0.70;;;;;;;19.29;60.60;99686.28;5365080;26;34601;-79
2023/09/13 05:06:01;;;;;;;0.45;0.45;;;;;;;19.24;61.15;99680.44;5365160;26;33808;-79
2023/09/13 05:08:28;;;;;;;1.25;1.15;;;;;;;19.21;61.62;99686.88;5346703;26;33930;-79
2023/09/13 05:10:56;;;;;;;1.37;1.27;;;;;;;19.45;61.05;99700.09;5345593;26;34327;-79
2023/09/13 05:13:23;;;;;;;3.62;1.67;;;;;;;19.69;60.02;99695.41;5365225;26;33690;-79
2023/09/13 05:15:52;;;;;;;0.98;0.95;;;;;;;19.60;60.32;99698.84;5364339;26;34793;-79
2023/09/13 05:18:19;;;;;;;0.60;0.60;;;;;;;19.63;60.57;99695.94;5345938;26;32312;-79
2023/09/13 05:20:47;;;;;;;2.03;1.55;;;;;;;19.63;60.69;99695.94;5365099;26;32990;-79
2023/09/13 05:23:15;;;;;;;1.27;1.20;;;;;;;19.75;60.61;99698.56;5346087;26;33134;-79
2023/09/13 05:25:44;;;;;;;0.62;0.62;;;;;;;20.02;59.85;99709.66;5327155;26;32890;-79
2023/09/13 05:28:13;;;;;;;2.62;2.10;;;;;;;19.84;60.52;99700.47;5346481;26;32995;-80
2023/09/13 05:30:46;;;;;;;0.85;0.85;;;;;;;19.86;60.79;99701.22;5363501;26;33851;-79
2023/09/13 05:33:14;;;;;;;2.45;1.00;;;;;;;19.99;60.56;99701.88;5348356;26;33604;-79
2023/09/13 05:35:42;;;;;;;0.52;0.52;;;;;;;20.11;60.25;99708.88;5349280;26;34314;-79
2023/09/13 05:38:10;;;;;;;1.60;1.45;;;;;;;20.16;59.88;99703.97;5348734;26;33160;-79
2023/09/13 05:40:38;;;;;;;2.37;2.17;;;;;;;20.53;58.77;99708.06;5367870;26;33648;-80
2023/09/13 05:43:06;;;;;;;2.12;1.30;;;;;;;20.83;58.96;99709.88;5349151;26;33935;-79
2023/09/13 05:45:34;;;;;;;2.42;1.55;;;;;;;20.88;58.57;99710.31;5346586;26;32734;-79
2023/09/13 05:48:02;;;;;;;3.40;2.00;;;;;;;20.96;58.62;99705.16;5384838;26;33281;-79
2023/09/13 05:50:30;;;;;;;1.83;1.23;;;;;;;21.12;57.99;99705.47;5346676;26;33362;-79
2023/09/13 05:52:58;;;;;;;2.78;1.23;;;;;;;21.10;58.05;99702.09;5325713;26;32900;-79
2023/09/13 05:55:25;;;;;;;1.35;1.25;;;;;;;21.13;57.79;99701.81;5327919;26;33006;-79
2023/09/13 05:57:54;;;;;;;2.47;1.73;;;;;;;21.05;58.44;99695.44;5364813;26;33057;-79
2023/09/13 06:00:21;;;;;;;2.22;2.03;;;;;;;21.12;58.25;99697.41;5346463;26;32842;-79
2023/09/13 06:02:49;;;;;;;1.12;0.90;;;;;;;21.21;57.99;99703.81;5365903;26;33750;-80
2023/09/13 06:05:17;;;;;;;2.25;2.15;;;;;;;21.41;57.71;99699.34;5365813;26;33683;-79
2023/09/13 06:07:45;;;;;;;1.30;1.17;;;;;;;21.52;57.54;99707.31;5365845;26;33195;-80
2023/09/13 06:10:12;;;;;;;6.78;2.53;;;;;;;21.58;57.16;99705.91;5328728;26;33637;-79
2023/09/13 06:12:40;;;;;;;2.70;1.62;;;;;;;21.94;56.67;99707.06;5365860;26;33948;-79
2023/09/13 06:15:08;;;;;;;1.40;1.40;;;;;;;22.31;56.66;99707.16;5346980;26;32879;-79
2023/09/13 06:17:38;;;;;;;3.10;0.98;;;;;;;22.43;56.77;99715.94;5347089;26;33294;-79
2023/09/13 06:20:07;;;;;;;3.87;2.20;;;;;;;22.15;56.05;99707.78;5365760;26;33484;-80
2023/09/13 06:22:35;;;;;;;2.33;1.75;;;;;;;22.20;55.42;99713.56;5347853;26;34182;-79
2023/09/13 06:25:03;;;;;;;1.35;1.12;;;;;;;22.22;54.41;99705.38;5365769;26;33496;-80
2023/09/13 06:27:37;;;;;;;2.12;1.05;;;;;;;22.41;54.32;99704.50;5349646;26;33144;-80
2023/09/13 06:30:05;;;;;;;2.00;1.85;;;;;;;22.84;53.40;99700.38;5327341;26;32675;-79
2023/09/13 06:32:33;;;;;;;4.60;1.27;;;;;;;22.71;53.28;99696.16;5328302;26;32585;-79
2023/09/13 06:35:13;;;;;;;2.62;1.10;;;;;;;22.85;52.51;99697.53;5349114;26;33322;-80
2023/09/13 06:37:44;;;;;;;9.57;1.55;;;;;;;23.46;52.92;99691.56;5346518;26;32600;-79
2023/09/13 06:40:15;;;;;;;4.25;1.42;;;;;;;23.73;51.32;99684.44;5347560;26;32987;-79
2023/09/13 06:42:43;;;;;;;4.85;2.42;;;;;;;23.72;51.03;99678.19;5347446;26;34356;-80
2023/09/13 06:45:27;;;;;;;9.77;2.50;;;;;;;24.00;50.74;99688.91;5368289;26;35014;-79
2023/09/13 06:47:57;;;;;;;0.80;0.80;;;;;;;24.35;49.97;99682.59;5347493;26;32422;-79
2023/09/13 06:50:26;;;;;;;0.93;0.90;;;;;;;24.27;49.26;99686.09;5365903;26;33466;-80
2023/09/13 06:53:13;;;;;;;3.97;2.50;;;;;;;24.47;48.87;99681.34;5353769;26;34865;-80
2023/09/13 06:56:00;;;;;;;13.62;1.83;;;;;;;24.68;48.18;99685.53;5368406;26;35154;-79
2023/09/13 06:58:32;;;;;;;3.55;2.80;;;;;;;24.47;48.55;99680.53;5329738;26;32925;-79
2023/09/13 07:01:00;;;;;;;6.87;0.93;;;;;;;24.59;47.58;99683.78;5347826;26;34797;-79
2023/09/13 07:03:48;;;;;;;1.85;0.98;;;;;;;24.48;47.53;99683.03;5285576;27;34113;-79
2023/09/13 07:06:25;;;;;;;2.65;2.33;;;;;;;25.03;47.54;99676.44;5280698;27;32922;-79
2023/09/13 07:08:53;;;;;;;1.90;1.35;;;;;;;25.38;46.09;99678.06;5279115;27;32391;-79
2023/09/13 07:11:22;;;;;;;3.47;1.15;;;;;;;25.19;46.82;99681.06;5261100;27;33656;-79
2023/09/13 07:13:49;;;;;;;1.00;0.98;;;;;;;25.55;46.38;99687.09;5279513;27;34798;-79
2023/09/13 07:16:17;;;;;;;2.08;1.23;;;;;;;25.47;45.47;99692.47;5279239;27;34042;-79
2023/09/13 07:18:45;;;;;;;5.85;1.60;;;;;;;25.49;46.16;99690.44;5278152;27;33089;-79
2023/09/13 07:21:13;;;;;;;1.80;1.70;;;;;;;25.73;46.49;99685.09;5290436;26;33876;-79
2023/09/13 07:23:41;;;;;;;11.27;3.03;;;;;;;25.79;45.61;99689.00;5347769;26;33845;-79
2023/09/13 07:26:09;;;;;;;4.15;1.62;;;;;;;25.50;45.82;99684.88;5349806;26;34577;-79
2023/09/13 07:28:37;;;;;;;5.57;1.75;;;;;;;25.96;45.70;99684.44;5349127;26;32646;-79
2023/09/13 07:31:09;;;;;;;1.67;1.00;;;;;;;26.25;45.64;99694.75;5349681;26;33631;-79
2023/09/13 07:33:42;;;;;;;8.38;2.60;;;;;;;26.50;44.58;99690.19;5367805;26;33114;-79
2023/09/13 07:36:09;;;;;;;4.65;1.85;;;;;;;26.74;44.00;99690.13;5388521;26;34766;-79
2023/09/13 07:38:37;;;;;;;3.58;1.42;;;;;;;26.97;44.68;99684.81;5368018;26;33065;-79
2023/09/13 07:41:06;;;;;;;9.93;2.35;;;;;;;27.04;44.07;99685.78;5350095;26;34307;-79
2023/09/13 07:43:34;;;;;;;6.90;1.42;;;;;;;27.06;43.43;99685.59;5348713;26;34789;-79
2023/09/13 07:46:03;;;;;;;8.60;2.45;;;;;;;27.08;44.38;99680.91;5349386;26;32856;-79
2023/09/13 07:48:31;;;;;;;2.10;2.00;;;;;;;27.20;45.69;99684.88;5388397;26;34224;-79
2023/09/13 07:50:59;;;;;;;2.80;1.48;;;;;;;27.16;44.92;99680.03;5348857;26;33571;-79
2023/09/13 07:53:26;;;;;;;3.05;1.65;;;;;;;27.45;44.47;99687.50;5347652;26;34761;-79
2023/09/13 07:55:55;;;;;;;1.90;1.80;;;;;;;27.76;43.47;99685.59;5367663;26;34240;-79
2023/09/13 07:58:23;;;;;;;2.35;1.65;;;;;;;27.22;43.66;99691.00;5368649;26;33410;-80
2023/09/13 08:00:51;;;;;;;4.40;2.47;;;;;;;27.64;43.21;99680.75;5348830;26;33102;-80
2023/09/13 08:03:20;;;;;;;5.25;1.92;;;;;;;27.84;42.69;99683.88;5367366;26;34006;-80
2023/09/13 08:05:48;;;;;;;1.55;1.45;;;;;;;27.91;42.31;99692.97;5349149;26;33846;-80
2023/09/13 08:08:22;;;;;;;9.25;2.60;;;;;;;28.20;41.71;99692.22;5349591;26;33555;-80
2023/09/13 08:10:50;;;;;;;1.30;1.20;;;;;;;28.33;41.33;99687.84;5331787;26;32752;-80
2023/09/13 08:13:21;;;;;;;2.80;2.58;;;;;;;28.42;40.65;99691.34;5349102;26;33489;-80
2023/09/13 08:15:50;;;;;;;1.47;1.37;;;;;;;28.53;40.31;99687.34;5350084;26;34149;-80
2023/09/13 08:18:18;;;;;;;2.08;1.95;;;;;;;28.81;39.78;99690.25;5349601;26;34762;-80
2023/09/13 08:20:46;;;;;;;3.50;2.47;;;;;;;28.73;39.39;99693.94;5330778;26;32821;-80
2023/09/13 08:23:14;;;;;;;2.08;1.98;;;;;;;29.30;38.67;99693.25;5368081;26;33673;-80
2023/09/13 08:25:43;;;;;;;2.28;2.05;;;;;;;29.25;38.46;99693.00;5331456;26;32898;-80
2023/09/13 08:28:11;;;;;;;6.05;2.42;;;;;;;29.39;38.73;99694.00;5349253;26;34040;-80
2023/09/13 08:30:39;;;;;;;1.37;0.98;;;;;;;29.56;38.20;99689.19;5349541;26;32818;-80
2023/09/13 08:33:09;;;;;;;3.45;2.55;;;;;;;29.62;38.14;99690.28;5348251;26;33694;-80
2023/09/13 08:35:37;;;;;;;3.22;2.12;;;;;;;29.84;37.49;99681.94;5331123;26;33676;-80
2023/09/13 08:38:05;;;;;;;3.42;2.12;;;;;;;29.76;38.75;99684.78;5349581;26;32494;-80
2023/09/13 08:40:33;;;;;;;7.97;2.78;;;;;;;30.14;36.45;99689.16;5348375;26;33821;-80
2023/09/13 08:43:01;;;;;;;1.33;1.10;;;;;;;30.34;38.06;99699.19;5330974;26;32948;-80
2023/09/13 08:45:29;;;;;;;4.35;2.37;;;;;;;30.39;37.09;99700.47;5349383;26;33876;-80
2023/09/13 08:48:01;;;;;;;2.62;1.45;;;;;;;29.97;37.22;99699.44;5366919;26;33559;-80
2023/09/13 08:50:30;;;;;;;1.35;1.02;;;;;;;30.05;35.69;99708.34;5350183;26;34554;-80
2023/09/13 08:52:59;;;;;;;5.15;2.15;;;;;;;29.95;36.47;99701.50;5368418;26;33546;-80
2023/09/13 08:55:27;;;;;;;4.82;1.20;;;;;;;30.44;35.36;99706.19;5348801;26;32862;-80
2023/09/13 08:57:56;;;;;;;14.85;1.30;;;;;;;30.37;35.75;99711.56;5349551;26;32451;-80
2023/09/13 09:00:26;;;;;;;3.33;2.03;;;;;;;30.65;34.47;99706.09;5349032;26;33469;-80
2023/09/13 09:02:55;;;;;;;0.80;0.80;;;;;;;30.57;34.90;99709.81;5349064;26;34133;-80
2023/09/13 09:05:26;;;;;;;3.47;1.48;;;;;;;30.79;34.37;99709.78;5331483;26;32894;-80
2023/09/13 09:07:56;;;;;;;1.12;1.12;;;;;;;30.60;34.96;99705.84;5348845;26;34216;-80
2023/09/13 09:10:24;;;;;;;2.42;1.65;;;;;;;30.84;35.04;99697.25;5348693;26;32780;-80
2023/09/13 09:12:56;;;;;;;1.62;1.40;;;;;;;30.92;33.77;99698.13;5367667;26;34326;-80
2023/09/13 09:15:25;;;;;;;2.12;1.70;;;;;;;30.87;33.81;99697.91;5331038;26;32862;-80
2023/09/13 09:17:55;;;;;;;2.28;1.95;;;;;;;31.11;34.18;99703.69;5330440;26;32605;-80
2023/09/13 09:20:29;;;;;;;1.15;1.15;;;;;;;31.49;33.84;99705.13;5330897;26;33821;-80
2023/09/13 09:22:57;;;;;;;6.40;1.62;;;;;;;31.26;33.85;99700.81;5349825;26;33684;-80
2023/09/13 09:25:25;;;;;;;2.25;2.05;;;;;;;31.46;33.79;99703.63;5349090;26;33057;-80
2023/09/13 09:27:53;;;;;;;1.17;1.17;;;;;;;31.47;33.53;99699.03;5349147;26;32954;-80
2023/09/13 09:30:31;;;;;;;5.53;2.90;;;;;;;31.73;33.56;99701.84;5349123;26;33383;-80
2023/09/13 09:33:01;;;;;;;1.12;1.02;;;;;;;31.34;33.54;99702.56;5367790;26;33398;-80
2023/09/13 09:35:30;;;;;;;1.42;1.17;;;;;;;32.03;32.77;99696.87;5349511;26;34559;-80
2023/09/13 09:37:57;;;;;;;1.37;1.27;;;;;;;31.77;33.05;99694.09;5349282;26;33360;-80
2023/09/13 09:40:26;;;;;;;2.00;1.65;;;;;;;32.26;32.12;99693.72;5349300;26;35332;-80
2023/09/13 09:42:57;;;;;;;3.20;1.58;;;;;;;32.21;32.85;99696.25;5345704;26;34652;-81
2023/09/13 09:45:25;;;;;;;0.80;0.80;;;;;;;32.18;32.65;99696.66;5327423;26;33878;-80
2023/09/13 09:47:53;;;;;;;1.42;1.20;;;;;;;32.23;31.81;99694.13;5326516;26;33829;-80
2023/09/13 09:50:21;;;;;;;1.40;1.30;;;;;;;32.26;31.92;99690.16;5326811;26;34720;-80
2023/09/13 09:52:52;;;;;;;4.72;1.65;;;;;;;32.94;30.80;99685.25;5326981;26;33529;-80
2023/09/13 09:55:21;;;;;;;1.90;1.70;;;;;;;33.08;30.53;99683.31;5346021;26;33441;-80
2023/09/13 09:57:51;;;;;;;2.17;1.98;;;;;;;32.50;32.25;99683.22;5327083;26;33185;-80
2023/09/13 10:00:18;;;;;;;5.05;1.48;;;;;;;32.19;32.17;99687.44;5326600;26;33605;-80
2023/09/13 10:02:47;;;;;;;2.17;1.98;;;;;;;32.48;31.75;99680.72;5345340;26;33986;-80
2023/09/13 10:05:17;;;;;;;1.35;1.25;;;;;;;32.63;31.55;99672.28;5345549;26;33903;-80
2023/09/13 10:07:56;;;;;;;10.57;3.15;;;;;;;32.64;32.24;99673.97;5327395;26;33896;-80
2023/09/13 10:10:33;;;;;;;3.40;1.62;;;;;;;32.31;31.96;99671.22;5327424;26;33630;-80
2023/09/13 10:13:03;;;;;;;1.12;1.02;;;;;;;32.95;31.28;99665.09;5345819;26;34824;-80
2023/09/13 10:15:32;;;;;;;5.00;1.83;;;;;;;33.06;31.63;99667.13;5326569;26;34145;-80
2023/09/13 10:18:01;;;;;;;7.25;1.70;;;;;;;32.67;31.96;99657.13;5327322;26;32516;-80
2023/09/13 10:20:30;;;;;;;1.67;1.52;;;;;;;32.96;32.69;99661.28;5326781;26;32877;-80
2023/09/13 10:23:00;;;;;;;2.00;1.80;;;;;;;33.00;31.50;99653.50;5345584;26;33954;-80
2023/09/13 10:25:31;;;;;;;2.50;1.33;;;;;;;32.71;32.46;99658.41;5325805;26;34138;-80
2023/09/13 10:28:03;;;;;;;3.72;2.72;;;;;;;32.56;32.53;99653.13;5326471;26;32374;-80
2023/09/13 10:30:33;;;;;;;2.65;2.05;;;;;;;32.80;31.33;99657.06;5326999;26;33828;-80
2023/09/13 10:33:03;;;;;;;2.83;2.08;;;;;;;33.06;31.95;99660.81;5307907;26;33098;-80
2023/09/13 10:35:32;;;;;;;1.95;1.10;;;;;;;33.14;32.03;99663.31;5326671;26;34086;-80
2023/09/13 10:38:06;;;;;;;1.95;1.60;;;;;;;33.23;32.17;99651.03;5307856;26;31991;-80
2023/09/13 10:40:46;;;;;;;2.08;1.50;;;;;;;33.42;30.37;99653.91;5308093;26;32908;-80
2023/09/13 10:43:14;;;;;;;2.35;1.73;;;;;;;33.59;30.68;99660.59;5340323;26;33310;-80
2023/09/13 10:45:42;;;;;;;1.90;1.65;;;;;;;33.25;30.92;99651.69;5346067;26;32797;-80
2023/09/13 10:48:10;;;;;;;2.15;1.70;;;;;;;33.44;30.57;99655.41;5364436;26;33762;-80
2023/09/13 10:50:38;;;;;;;6.75;2.67;;;;;;;33.51;31.73;99647.16;5328043;26;32798;-80
2023/09/13 10:53:06;;;;;;;5.03;2.00;;;;;;;33.92;30.67;99648.56;5345671;26;34539;-81
2023/09/13 10:55:34;;;;;;;1.75;1.65;;;;;;;33.89;29.19;99639.72;5345991;26;33741;-80
2023/09/13 10:58:03;;;;;;;3.42;1.77;;;;;;;34.20;29.53;99645.41;5308572;26;31735;-80
2023/09/13 11:00:34;;;;;;;3.55;1.92;;;;;;;34.02;30.13;99643.44;5346058;26;32795;-80
2023/09/13 11:03:02;;;;;;;1.35;1.25;;;;;;;34.43;28.16;99642.87;5346454;26;34536;-80
2023/09/13 11:05:33;;;;;;;1.42;1.30;;;;;;;34.54;28.72;99630.34;5326697;26;34340;-80
2023/09/13 11:08:03;;;;;;;1.77;1.60;;;;;;;34.33;29.26;99631.59;5344281;26;33600;-80
2023/09/13 11:10:32;;;;;;;1.12;1.12;;;;;;;34.69;28.00;99628.06;5346181;26;33088;-80
2023/09/13 11:13:12;;;;;;;2.58;2.37;;;;;;;34.02;26.68;99627.00;5364531;26;33430;-80
2023/09/13 11:15:48;;;;;;;1.40;1.30;;;;;;;34.06;26.08;99629.09;5364075;26;33522;-80
2023/09/13 11:18:16;;;;;;;1.12;1.02;;;;;;;34.00;27.16;99620.94;5345863;26;32657;-80
2023/09/13 11:20:44;;;;;;;3.40;1.98;;;;;;;34.46;26.76;99622.41;5363783;26;33956;-81
2023/09/13 11:23:18;;;;;;;1.45;1.35;;;;;;;34.51;26.69;99620.66;5343785;26;33799;-81
2023/09/13 11:26:54;;;;;;;0.90;0.82;;;;;;;34.89;26.39;99617.69;5336251;26;33586;-79
2023/09/13 11:29:26;;;;;;;2.50;2.03;;;;;;;35.11;25.53;99617.25;5364423;26;32387;-79
2023/09/13 11:31:59;;;;;;;0.80;0.80;;;;;;;34.89;24.79;99611.34;5364516;26;32884;-79
2023/09/13 11:34:33;;;;;;;1.20;1.10;;;;;;;34.69;24.47;99611.59;5365831;26;33681;-79
2023/09/13 11:37:05;;;;;;;3.20;1.48;;;;;;;35.12;24.67;99605.19;5365599;26;35170;-79
2023/09/13 11:39:32;;;;;;;;;;;;;;;35.27;24.17;99602.03;5345998;26;33490;-79
2023/09/13 11:42:03;;;;;;;3.17;0.93;;;;;;;35.18;23.80;99600.69;5363786;26;33936;-79
2023/09/13 11:44:31;;;;;;;6.05;2.15;;;;;;;35.03;23.09;99606.56;5345188;26;32737;-79
2023/09/13 11:47:02;;;;;;;1.45;1.35;;;;;;;35.09;23.65;99608.41;5363712;26;34549;-79